sensor_id;sensor_type;location;lat;lon;timestamp;pressure;altitude;pressure_sealevel;temperature;humidity
48976;BME280;34791;52.752;8.346;2023-03-04T00:02:08;148761.53;;;5.20;100.00
48976;BME280;34791;52.752;8.346;2023-03-04T00:04:34;148766.72;;;5.22;100.00
48976;BME280;34791;52.752;8.346;2023-03-04T00:06:59;148766.72;;;5.22;100.00
48976;BME280;34791;52.752;8.346;2023-03-04T00:09:25;148769.31;;;5.23;100.00
48976;BME280;34791;52.752;8.346;2023-03-04T00:11:50;148780.88;;;5.28;100.00
48976;BME280;34791;52.752;8.346;2023-03-04T00:14:18;148783.47;;;5.29;100.00
48976;BME280;34791;52.752;8.346;2023-03-04T00:16:43;148782.19;;;5.28;100.00
48976;BME280;34791;52.752;8.346;2023-03-04T00:19:09;148778.31;;;5.27;100.00
48976;BME280;34791;52.752;8.346;2023-03-04T00:21:35;148771.88;;;5.24;100.00
48976;BME280;34791;52.752;8.346;2023-03-04T00:24:00;148777.03;;;5.26;100.00
48976;BME280;34791;52.752;8.346;2023-03-04T00:26:26;148777.03;;;5.26;100.00
48976;BME280;34791;52.752;8.346;2023-03-04T00:28:51;148793.81;;;5.33;100.00
48976;BME280;34791;52.752;8.346;2023-03-04T00:31:17;148795.09;;;5.34;100.00
48976;BME280;34791;52.752;8.346;2023-03-04T00:33:42;148796.38;;;5.34;100.00
48976;BME280;34791;52.752;8.346;2023-03-04T00:36:09;148800.25;;;5.36;100.00
48976;BME280;34791;52.752;8.346;2023-03-04T00:38:34;148804.09;;;5.37;100.00
48976;BME280;34791;52.752;8.346;2023-03-04T00:40:59;148797.69;;;5.35;100.00
48976;BME280;34791;52.752;8.346;2023-03-04T00:43:25;148797.69;;;5.35;100.00
48976;BME280;34791;52.752;8.346;2023-03-04T00:45:50;148797.69;;;5.35;100.00
48976;BME280;34791;52.752;8.346;2023-03-04T00:48:16;148797.69;;;5.35;100.00
48976;BME280;34791;52.752;8.346;2023-03-04T00:50:42;148788.63;;;5.31;100.00
48976;BME280;34791;52.752;8.346;2023-03-04T00:53:08;148795.09;;;5.34;100.00
48976;BME280;34791;52.752;8.346;2023-03-04T00:55:34;148800.25;;;5.36;100.00
48976;BME280;34791;52.752;8.346;2023-03-04T00:58:00;148796.38;;;5.34;100.00
48976;BME280;34791;52.752;8.346;2023-03-04T01:00:25;148797.69;;;5.35;100.00
48976;BME280;34791;52.752;8.346;2023-03-04T01:02:51;148807.97;;;5.39;100.00
48976;BME280;34791;52.752;8.346;2023-03-04T01:05:16;148800.25;;;5.36;100.00
48976;BME280;34791;52.752;8.346;2023-03-04T01:07:42;148800.25;;;5.36;100.00
48976;BME280;34791;52.752;8.346;2023-03-04T01:10:08;148795.09;;;5.34;100.00
48976;BME280;34791;52.752;8.346;2023-03-04T01:12:34;148797.69;;;5.35;100.00
48976;BME280;34791;52.752;8.346;2023-03-04T01:15:00;148796.38;;;5.34;100.00
48976;BME280;34791;52.752;8.346;2023-03-04T01:17:25;148801.53;;;5.36;100.00
48976;BME280;34791;52.752;8.346;2023-03-04T01:19:51;148797.69;;;5.35;100.00
48976;BME280;34791;52.752;8.346;2023-03-04T01:22:16;148795.09;;;5.34;100.00
48976;BME280;34791;52.752;8.346;2023-03-04T01:24:43;148800.25;;;5.36;100.00
48976;BME280;34791;52.752;8.346;2023-03-04T01:27:08;148806.69;;;5.38;100.00
48976;BME280;34791;52.752;8.346;2023-03-04T01:29:34;148797.69;;;5.35;100.00
48976;BME280;34791;52.752;8.346;2023-03-04T01:32:03;148802.81;;;5.37;100.00
48976;BME280;34791;52.752;8.346;2023-03-04T01:34:28;148811.84;;;5.40;100.00
48976;BME280;34791;52.752;8.346;2023-03-04T01:36:54;148807.97;;;5.39;100.00
48976;BME280;34791;52.752;8.346;2023-03-04T01:39:19;148807.97;;;5.39;100.00
48976;BME280;34791;52.752;8.346;2023-03-04T01:41:45;148810.53;;;5.40;100.00
48976;BME280;34791;52.752;8.346;2023-03-04T01:44:10;148797.69;;;5.35;100.00
48976;BME280;34791;52.752;8.346;2023-03-04T01:46:36;148802.81;;;5.37;100.00
48976;BME280;34791;52.752;8.346;2023-03-04T01:49:03;148810.53;;;5.40;100.00
48976;BME280;34791;52.752;8.346;2023-03-04T01:51:28;148815.69;;;5.42;100.00
48976;BME280;34791;52.752;8.346;2023-03-04T01:53:55;148815.69;;;5.42;100.00
48976;BME280;34791;52.752;8.346;2023-03-04T01:56:24;148815.69;;;5.42;100.00
48976;BME280;34791;52.752;8.346;2023-03-04T01:59:29;148833.78;;;5.49;100.00
48976;BME280;34791;52.752;8.346;2023-03-04T02:01:59;148828.63;;;5.47;100.00
48976;BME280;34791;52.752;8.346;2023-03-04T02:04:30;148818.28;;;5.43;100.00
48976;BME280;34791;52.752;8.346;2023-03-04T02:06:57;148828.63;;;5.47;100.00
48976;BME280;34791;52.752;8.346;2023-03-04T02:09:23;148820.84;;;5.44;100.00
48976;BME280;34791;52.752;8.346;2023-03-04T02:11:49;148824.75;;;5.45;100.00
48976;BME280;34791;52.752;8.346;2023-03-04T02:14:16;148818.28;;;5.43;100.00
48976;BME280;34791;52.752;8.346;2023-03-04T02:16:42;148815.69;;;5.42;100.00
48976;BME280;34791;52.752;8.346;2023-03-04T02:21:58;148807.97;;;5.39;100.00
48976;BME280;34791;52.752;8.346;2023-03-04T02:25:06;148823.41;;;5.45;100.00
48976;BME280;34791;52.752;8.346;2023-03-04T02:27:11;148827.31;;;5.46;100.00
48976;BME280;34791;52.752;8.346;2023-03-04T02:29:37;148820.84;;;5.44;100.00
48976;BME280;34791;52.752;8.346;2023-03-04T02:32:03;148818.28;;;5.43;100.00
48976;BME280;34791;52.752;8.346;2023-03-04T02:34:34;148816.97;;;5.42;100.00
48976;BME280;34791;52.752;8.346;2023-03-04T02:37:01;148815.69;;;5.42;100.00
48976;BME280;34791;52.752;8.346;2023-03-04T02:39:31;148810.53;;;5.40;100.00
48976;BME280;34791;52.752;8.346;2023-03-04T02:41:58;148814.41;;;5.41;100.00
48976;BME280;34791;52.752;8.346;2023-03-04T02:44:29;148822.13;;;5.44;100.00
48976;BME280;34791;52.752;8.346;2023-03-04T02:46:55;148811.84;;;5.40;100.00
48976;BME280;34791;52.752;8.346;2023-03-04T02:49:22;148814.41;;;5.41;100.00
48976;BME280;34791;52.752;8.346;2023-03-04T02:54:40;148804.09;;;5.37;100.00
48976;BME280;34791;52.752;8.346;2023-03-04T02:57:10;148805.41;;;5.38;100.00
48976;BME280;34791;52.752;8.346;2023-03-04T02:59:36;148798.97;;;5.35;100.00
48976;BME280;34791;52.752;8.346;2023-03-04T03:02:03;148804.09;;;5.37;100.00
48976;BME280;34791;52.752;8.346;2023-03-04T03:04:29;148820.84;;;5.44;100.00
48976;BME280;34791;52.752;8.346;2023-03-04T03:06:54;148819.56;;;5.43;100.00
48976;BME280;34791;52.752;8.346;2023-03-04T03:09:20;148818.28;;;5.43;100.00
48976;BME280;34791;52.752;8.346;2023-03-04T03:11:45;148813.13;;;5.41;100.00
48976;BME280;34791;52.752;8.346;2023-03-04T03:14:10;148815.69;;;5.42;100.00
48976;BME280;34791;52.752;8.346;2023-03-04T03:16:36;148798.97;;;5.35;100.00
48976;BME280;34791;52.752;8.346;2023-03-04T03:19:01;148797.69;;;5.35;100.00
48976;BME280;34791;52.752;8.346;2023-03-04T03:21:27;148786.03;;;5.30;100.00
48976;BME280;34791;52.752;8.346;2023-03-04T03:23:52;148793.81;;;5.33;100.00
48976;BME280;34791;52.752;8.346;2023-03-04T03:26:18;148789.91;;;5.32;100.00
48976;BME280;34791;52.752;8.346;2023-03-04T03:28:44;148792.47;;;5.33;100.00
48976;BME280;34791;52.752;8.346;2023-03-04T03:31:09;148787.31;;;5.30;100.00
48976;BME280;34791;52.752;8.346;2023-03-04T03:33:35;148774.47;;;5.25;100.00
48976;BME280;34791;52.752;8.346;2023-03-04T03:36:00;148787.31;;;5.30;100.00
48976;BME280;34791;52.752;8.346;2023-03-04T03:38:26;60484.78;;;-145.18;100.00
48976;BME280;34791;52.752;8.346;2023-03-04T03:40:51;148755.09;;;5.18;100.00
48976;BME280;34791;52.752;8.346;2023-03-04T03:43:18;148758.97;;;5.19;100.00
48976;BME280;34791;52.752;8.346;2023-03-04T03:45:43;148758.97;;;5.19;100.00
48976;BME280;34791;52.752;8.346;2023-03-04T03:48:09;148755.09;;;5.18;100.00
48976;BME280;34791;52.752;8.346;2023-03-04T03:50:34;148737.09;;;5.11;100.00
48976;BME280;34791;52.752;8.346;2023-03-04T03:53:00;148756.38;;;5.18;100.00
48976;BME280;34791;52.752;8.346;2023-03-04T03:55:25;148761.53;;;5.20;100.00
48976;BME280;34791;52.752;8.346;2023-03-04T03:57:51;148753.81;;;5.17;100.00
48976;BME280;34791;52.752;8.346;2023-03-04T04:00:16;148751.25;;;5.16;100.00
48976;BME280;34791;52.752;8.346;2023-03-04T04:02:42;148751.25;;;5.16;100.00
48976;BME280;34791;52.752;8.346;2023-03-04T04:05:08;148733.22;;;5.09;100.00
48976;BME280;34791;52.752;8.346;2023-03-04T04:07:35;148735.78;;;5.10;100.00
48976;BME280;34791;52.752;8.346;2023-03-04T04:10:01;148733.22;;;5.09;100.00
48976;BME280;34791;52.752;8.346;2023-03-04T04:12:26;148743.50;;;5.13;100.00
48976;BME280;34791;52.752;8.346;2023-03-04T04:14:52;148730.59;;;5.08;100.00
48976;BME280;34791;52.752;8.346;2023-03-04T04:17:17;148725.44;;;5.06;100.00
48976;BME280;34791;52.752;8.346;2023-03-04T04:19:42;148704.84;;;4.98;100.00
48976;BME280;34791;52.752;8.346;2023-03-04T04:22:13;148699.66;;;4.96;100.00
48976;BME280;34791;52.752;8.346;2023-03-04T04:24:39;148707.44;;;4.99;100.00
48976;BME280;34791;52.752;8.346;2023-03-04T04:27:04;148706.16;;;4.98;100.00
48976;BME280;34791;52.752;8.346;2023-03-04T04:29:30;148699.66;;;4.96;100.00
48976;BME280;34791;52.752;8.346;2023-03-04T04:31:56;148689.38;;;4.92;100.00
48976;BME280;34791;52.752;8.346;2023-03-04T04:34:22;148686.78;;;4.91;100.00
48976;BME280;34791;52.752;8.346;2023-03-04T04:36:47;148694.50;;;4.94;100.00
48976;BME280;34791;52.752;8.346;2023-03-04T04:39:12;148686.78;;;4.91;100.00
48976;BME280;34791;52.752;8.346;2023-03-04T04:41:40;148686.78;;;4.91;100.00
48976;BME280;34791;52.752;8.346;2023-03-04T04:44:06;148679.06;;;4.88;100.00
48976;BME280;34791;52.752;8.346;2023-03-04T04:46:32;148666.16;;;4.83;100.00
48976;BME280;34791;52.752;8.346;2023-03-04T04:48:58;148666.16;;;4.83;100.00
48976;BME280;34791;52.752;8.346;2023-03-04T04:51:24;148653.28;;;4.78;100.00
48976;BME280;34791;52.752;8.346;2023-03-04T04:53:49;148667.44;;;4.83;100.00
48976;BME280;34791;52.752;8.346;2023-03-04T04:56:17;148650.72;;;4.77;100.00
48976;BME280;34791;52.752;8.346;2023-03-04T04:58:44;148648.16;;;4.76;100.00
48976;BME280;34791;52.752;8.346;2023-03-04T05:01:10;148637.81;;;4.71;100.00
48976;BME280;34791;52.752;8.346;2023-03-04T05:03:36;148627.50;;;4.67;100.00
48976;BME280;34791;52.752;8.346;2023-03-04T05:06:04;148622.38;;;4.65;100.00
48976;BME280;34791;52.752;8.346;2023-03-04T05:08:30;148621.06;;;4.65;100.00
48976;BME280;34791;52.752;8.346;2023-03-04T05:10:55;148604.31;;;4.58;100.00
48976;BME280;34791;52.752;8.346;2023-03-04T05:13:21;148612.06;;;4.61;100.00
48976;BME280;34791;52.752;8.346;2023-03-04T05:15:50;148606.88;;;4.59;100.00
48976;BME280;34791;52.752;8.346;2023-03-04T05:18:16;148603.00;;;4.58;100.00
48976;BME280;34791;52.752;8.346;2023-03-04T05:20:41;148592.72;;;4.54;100.00
48976;BME280;34791;52.752;8.346;2023-03-04T05:23:07;148591.44;;;4.53;100.00
48976;BME280;34791;52.752;8.346;2023-03-04T05:25:32;148583.72;;;4.50;100.00
48976;BME280;34791;52.752;8.346;2023-03-04T05:27:57;148575.97;;;4.47;100.00
48976;BME280;34791;52.752;8.346;2023-03-04T05:30:23;148579.88;;;4.49;100.00
48976;BME280;34791;52.752;8.346;2023-03-04T05:32:48;148577.25;;;4.48;100.00
48976;BME280;34791;52.752;8.346;2023-03-04T05:35:13;148574.66;;;4.47;100.00
48976;BME280;34791;52.752;8.346;2023-03-04T05:37:39;148560.53;;;4.41;100.00
48976;BME280;34791;52.752;8.346;2023-03-04T05:40:04;148546.31;;;4.35;100.00
48976;BME280;34791;52.752;8.346;2023-03-04T05:42:30;148542.47;;;4.34;100.00
48976;BME280;34791;52.752;8.346;2023-03-04T05:44:55;148532.19;;;4.30;100.00
48976;BME280;34791;52.752;8.346;2023-03-04T05:47:21;148532.19;;;4.30;100.00
48976;BME280;34791;52.752;8.346;2023-03-04T05:49:46;148543.75;;;4.34;100.00
48976;BME280;34791;52.752;8.346;2023-03-04T05:52:12;148536.03;;;4.31;100.00
48976;BME280;34791;52.752;8.346;2023-03-04T05:54:37;148550.22;;;4.37;100.00
48976;BME280;34791;52.752;8.346;2023-03-04T05:57:02;148547.63;;;4.36;100.00
48976;BME280;34791;52.752;8.346;2023-03-04T05:59:28;148534.75;;;4.31;100.00
48976;BME280;34791;52.752;8.346;2023-03-04T06:01:53;148545.03;;;4.35;100.00
48976;BME280;34791;52.752;8.346;2023-03-04T06:04:19;148543.75;;;4.34;100.00
48976;BME280;34791;52.752;8.346;2023-03-04T06:06:44;148557.94;;;4.40;100.00
48976;BME280;34791;52.752;8.346;2023-03-04T06:09:11;148561.81;;;4.41;100.00
48976;BME280;34791;52.752;8.346;2023-03-04T06:11:37;148561.81;;;4.41;100.00
48976;BME280;34791;52.752;8.346;2023-03-04T06:14:02;148570.81;;;4.45;100.00
48976;BME280;34791;52.752;8.346;2023-03-04T06:16:27;148566.97;;;4.44;100.00
48976;BME280;34791;52.752;8.346;2023-03-04T06:18:53;148565.66;;;4.43;100.00
48976;BME280;34791;52.752;8.346;2023-03-04T06:21:18;148551.53;;;4.37;100.00
48976;BME280;34791;52.752;8.346;2023-03-04T06:23:44;148554.09;;;4.38;100.00
48976;BME280;34791;52.752;8.346;2023-03-04T06:26:09;148543.75;;;4.34;100.00
48976;BME280;34791;52.752;8.346;2023-03-04T06:28:42;148566.97;;;4.44;100.00
48976;BME280;34791;52.752;8.346;2023-03-04T06:31:08;148560.53;;;4.41;100.00
48976;BME280;34791;52.752;8.346;2023-03-04T06:33:33;148575.97;;;4.47;100.00
48976;BME280;34791;52.752;8.346;2023-03-04T06:35:59;148578.53;;;4.48;100.00
48976;BME280;34791;52.752;8.346;2023-03-04T06:38:25;148585.00;;;4.51;100.00
48976;BME280;34791;52.752;8.346;2023-03-04T06:40:50;148595.31;;;4.55;100.00
48976;BME280;34791;52.752;8.346;2023-03-04T06:43:16;148588.88;;;4.52;100.00
48976;BME280;34791;52.752;8.346;2023-03-04T06:45:41;148590.16;;;4.53;100.00
48976;BME280;34791;52.752;8.346;2023-03-04T06:48:07;148596.59;;;4.55;100.00
48976;BME280;34791;52.752;8.346;2023-03-04T06:50:32;148596.59;;;4.55;100.00
48976;BME280;34791;52.752;8.346;2023-03-04T06:52:58;148594.00;;;4.54;100.00
48976;BME280;34791;52.752;8.346;2023-03-04T06:55:23;148604.31;;;4.58;100.00
48976;BME280;34791;52.752;8.346;2023-03-04T06:57:49;148605.59;;;4.59;100.00
48976;BME280;34791;52.752;8.346;2023-03-04T07:00:15;148594.00;;;4.54;100.00
48976;BME280;34791;52.752;8.346;2023-03-04T07:02:40;148615.94;;;4.63;100.00
48976;BME280;34791;52.752;8.346;2023-03-04T07:05:06;148628.78;;;4.68;100.00
48976;BME280;34791;52.752;8.346;2023-03-04T07:07:32;148643.00;;;4.74;100.00
48976;BME280;34791;52.752;8.346;2023-03-04T07:09:57;148637.81;;;4.71;100.00
48976;BME280;34791;52.752;8.346;2023-03-04T07:12:22;148652.00;;;4.77;100.00
48976;BME280;34791;52.752;8.346;2023-03-04T07:14:48;148666.16;;;4.83;100.00
48976;BME280;34791;52.752;8.346;2023-03-04T07:17:13;148673.94;;;4.86;100.00
48976;BME280;34791;52.752;8.346;2023-03-04T07:19:39;148670.03;;;4.84;100.00
48976;BME280;34791;52.752;8.346;2023-03-04T07:22:04;148684.22;;;4.90;100.00
48976;BME280;34791;52.752;8.346;2023-03-04T07:24:30;148691.94;;;4.93;100.00
48976;BME280;34791;52.752;8.346;2023-03-04T07:26:55;148702.28;;;4.97;100.00
48976;BME280;34791;52.752;8.346;2023-03-04T07:29:20;148702.28;;;4.97;100.00
48976;BME280;34791;52.752;8.346;2023-03-04T07:31:46;148735.78;;;5.10;100.00
48976;BME280;34791;52.752;8.346;2023-03-04T07:34:12;148735.78;;;5.10;100.00
48976;BME280;34791;52.752;8.346;2023-03-04T07:36:38;148743.50;;;5.13;100.00
48976;BME280;34791;52.752;8.346;2023-03-04T07:39:05;148769.31;;;5.23;100.00
48976;BME280;34791;52.752;8.346;2023-03-04T07:41:31;148756.38;;;5.18;100.00
48976;BME280;34791;52.752;8.346;2023-03-04T07:44:00;148743.50;;;5.13;100.00
48976;BME280;34791;52.752;8.346;2023-03-04T07:46:26;148751.25;;;5.16;100.00
48976;BME280;34791;52.752;8.346;2023-03-04T07:48:51;148797.69;;;5.35;100.00
48976;BME280;34791;52.752;8.346;2023-03-04T07:51:22;148820.84;;;5.44;100.00
48976;BME280;34791;52.752;8.346;2023-03-04T07:53:50;148824.75;;;5.45;100.00
48976;BME280;34791;52.752;8.346;2023-03-04T07:56:21;148898.25;;;5.74;100.00
48976;BME280;34791;52.752;8.346;2023-03-04T07:58:47;148890.53;;;5.71;100.00
48976;BME280;34791;52.752;8.346;2023-03-04T08:01:15;148880.16;;;5.67;100.00
48976;BME280;34791;52.752;8.346;2023-03-04T08:03:41;148882.75;;;5.68;100.00
48976;BME280;34791;52.752;8.346;2023-03-04T08:06:09;148903.41;;;5.76;100.00
48976;BME280;34791;52.752;8.346;2023-03-04T08:08:35;148922.75;;;5.84;100.00
48976;BME280;34791;52.752;8.346;2023-03-04T08:11:17;148900.81;;;5.75;100.00
48976;BME280;34791;52.752;8.346;2023-03-04T08:13:43;148917.59;;;5.82;100.00
48976;BME280;34791;52.752;8.346;2023-03-04T08:16:11;148887.94;;;5.70;100.00
48976;BME280;34791;52.752;8.346;2023-03-04T08:18:37;148880.16;;;5.67;100.00
48976;BME280;34791;52.752;8.346;2023-03-04T08:21:07;148926.63;;;5.85;100.00
48976;BME280;34791;52.752;8.346;2023-03-04T08:23:33;148946.00;;;5.93;100.00
48976;BME280;34791;52.752;8.346;2023-03-04T08:25:58;148933.06;;;5.88;100.00
48976;BME280;34791;52.752;8.346;2023-03-04T08:28:23;148947.31;;;5.94;100.00
48976;BME280;34791;52.752;8.346;2023-03-04T08:30:53;148931.78;;;5.87;100.00
48976;BME280;34791;52.752;8.346;2023-03-04T08:33:18;148949.91;;;5.95;100.00
48976;BME280;34791;52.752;8.346;2023-03-04T08:35:44;148964.06;;;6.00;100.00
48976;BME280;34791;52.752;8.346;2023-03-04T08:38:09;148996.31;;;6.13;100.00
48976;BME280;34791;52.752;8.346;2023-03-04T08:40:34;149027.28;;;6.25;100.00
48976;BME280;34791;52.752;8.346;2023-03-04T08:43:00;149066.00;;;6.40;100.00
48976;BME280;34791;52.752;8.346;2023-03-04T08:45:26;149063.41;;;6.39;100.00
48976;BME280;34791;52.752;8.346;2023-03-04T08:47:51;149138.31;;;6.69;100.00
48976;BME280;34791;52.752;8.346;2023-03-04T08:50:17;149231.25;;;7.05;100.00
48976;BME280;34791;52.752;8.346;2023-03-04T08:52:42;149228.69;;;7.04;100.00
48976;BME280;34791;52.752;8.346;2023-03-04T08:55:08;149151.19;;;6.74;100.00
48976;BME280;34791;52.752;8.346;2023-03-04T08:57:33;149135.72;;;6.68;100.00
48976;BME280;34791;52.752;8.346;2023-03-04T08:59:58;149085.38;;;6.48;100.00
48976;BME280;34791;52.752;8.346;2023-03-04T09:02:24;149014.41;;;6.20;100.00
48976;BME280;34791;52.752;8.346;2023-03-04T09:04:49;148997.59;;;6.13;100.00
48976;BME280;34791;52.752;8.346;2023-03-04T09:07:15;148942.13;;;5.92;100.00
48976;BME280;34791;52.752;8.346;2023-03-04T09:09:40;148916.28;;;5.81;100.00
48976;BME280;34791;52.752;8.346;2023-03-04T09:12:06;148911.13;;;5.79;100.00
48976;BME280;34791;52.752;8.346;2023-03-04T09:14:32;148947.31;;;5.94;100.00
48976;BME280;34791;52.752;8.346;2023-03-04T09:17:00;148995.03;;;6.12;100.00
48976;BME280;34791;52.752;8.346;2023-03-04T09:19:26;149050.53;;;6.34;100.00
48976;BME280;34791;52.752;8.346;2023-03-04T09:21:52;149068.56;;;6.41;100.00
48976;BME280;34791;52.752;8.346;2023-03-04T09:24:25;149138.31;;;6.69;100.00
48976;BME280;34791;52.752;8.346;2023-03-04T09:26:52;149152.47;;;6.74;100.00
48976;BME280;34791;52.752;8.346;2023-03-04T09:29:18;149152.47;;;6.74;100.00
48976;BME280;34791;52.752;8.346;2023-03-04T09:31:43;149122.78;;;6.63;100.00
48976;BME280;34791;52.752;8.346;2023-03-04T09:34:08;149115.06;;;6.60;100.00
48976;BME280;34791;52.752;8.346;2023-03-04T09:36:34;149098.25;;;6.53;100.00
48976;BME280;34791;52.752;8.346;2023-03-04T09:39:00;149084.06;;;6.47;100.00
48976;BME280;34791;52.752;8.346;2023-03-04T09:41:39;149089.25;;;6.50;100.00
48976;BME280;34791;52.752;8.346;2023-03-04T09:46:48;149027.28;;;6.25;100.00
48976;BME280;34791;52.752;8.346;2023-03-04T09:49:15;149032.44;;;6.27;100.00
48976;BME280;34791;52.752;8.346;2023-03-04T10:00:16;149089.25;;;6.50;100.00
48976;BME280;34791;52.752;8.346;2023-03-04T10:03:19;149010.53;;;6.19;100.00
48976;BME280;34791;52.752;8.346;2023-03-04T10:06:03;149099.53;;;6.54;100.00
48976;BME280;34791;52.752;8.346;2023-03-04T10:09:03;149055.69;;;6.36;100.00
48976;BME280;34791;52.752;8.346;2023-03-04T10:11:34;149081.50;;;6.46;100.00
48976;BME280;34791;52.752;8.346;2023-03-04T10:16:47;149091.81;;;6.51;100.00
48976;BME280;34791;52.752;8.346;2023-03-04T10:21:44;149310.00;;;7.37;100.00
48976;BME280;34791;52.752;8.346;2023-03-04T10:24:11;149447.00;;;7.90;100.00
48976;BME280;34791;52.752;8.346;2023-03-04T10:26:37;149422.44;;;7.81;100.00
48976;BME280;34791;52.752;8.346;2023-03-04T10:29:03;149317.81;;;7.40;100.00
48976;BME280;34791;52.752;8.346;2023-03-04T10:31:37;149169.28;;;6.81;100.00
48976;BME280;34791;52.752;8.346;2023-03-04T10:34:03;149045.38;;;6.32;100.00
48976;BME280;34791;52.752;8.346;2023-03-04T10:38:59;149002.75;;;6.15;100.00
48976;BME280;34791;52.752;8.346;2023-03-04T10:41:26;149022.13;;;6.23;100.00
48976;BME280;34791;52.752;8.346;2023-03-04T10:44:15;148965.38;;;6.01;100.00
48976;BME280;34791;52.752;8.346;2023-03-04T10:46:46;148960.22;;;5.99;100.00
48976;BME280;34791;52.752;8.346;2023-03-04T10:49:14;149069.84;;;6.42;100.00
48976;BME280;34791;52.752;8.346;2023-03-04T10:51:49;149210.59;;;6.97;100.00
48976;BME280;34791;52.752;8.346;2023-03-04T10:54:27;149231.25;;;7.05;100.00
48976;BME280;34791;52.752;8.346;2023-03-04T10:56:56;149246.72;;;7.12;100.00
48976;BME280;34791;52.752;8.346;2023-03-04T11:02:26;149483.16;;;8.05;100.00
48976;BME280;34791;52.752;8.346;2023-03-04T11:07:24;149586.59;;;8.45;100.00
48976;BME280;34791;52.752;8.346;2023-03-04T11:09:51;149575.00;;;8.41;100.00
48976;BME280;34791;52.752;8.346;2023-03-04T11:12:20;149630.59;;;8.63;100.00
48976;BME280;34791;52.752;8.346;2023-03-04T11:14:48;149487.03;;;8.06;100.00
48976;BME280;34791;52.752;8.346;2023-03-04T11:17:30;149502.56;;;8.12;100.00
48976;BME280;34791;52.752;8.346;2023-03-04T11:20:33;149533.59;;;8.25;100.00
48976;BME280;34791;52.752;8.346;2023-03-04T11:23:04;149634.47;;;8.64;100.00
48976;BME280;34791;52.752;8.346;2023-03-04T11:25:35;149556.81;;;8.34;100.00
48976;BME280;34791;52.752;8.346;2023-03-04T11:28:13;149536.16;;;8.26;100.00
48976;BME280;34791;52.752;8.346;2023-03-04T11:30:45;149293.25;;;7.30;100.00
48976;BME280;34791;52.752;8.346;2023-03-04T11:33:26;149232.56;;;7.06;100.00
48976;BME280;34791;52.752;8.346;2023-03-04T11:38:50;149355.25;;;7.54;100.00
48976;BME280;34791;52.752;8.346;2023-03-04T11:41:31;149396.56;;;7.71;100.00
48976;BME280;34791;52.752;8.346;2023-03-04T11:43:59;149257.09;;;7.16;100.00
48976;BME280;34791;52.752;8.346;2023-03-04T11:46:48;149285.50;;;7.27;100.00
48976;BME280;34791;52.752;8.346;2023-03-04T11:52:25;149289.38;;;7.28;100.00
48976;BME280;34791;52.752;8.346;2023-03-04T11:58:01;149334.56;;;7.46;100.00
48976;BME280;34791;52.752;8.346;2023-03-04T12:00:39;149509.03;;;8.15;100.00
48976;BME280;34791;52.752;8.346;2023-03-04T12:06:02;149725.00;;;9.00;100.00
48976;BME280;34791;52.752;8.346;2023-03-04T12:24:40;149228.69;;;7.04;100.00
48976;BME280;34791;52.752;8.346;2023-03-04T12:29:50;149365.56;;;7.58;100.00
48976;BME280;34791;52.752;8.346;2023-03-04T12:34:48;149365.56;;;7.58;100.00
48976;BME280;34791;52.752;8.346;2023-03-04T12:42:44;149244.16;;;7.11;100.00
48976;BME280;34791;52.752;8.346;2023-03-04T12:48:34;149215.75;;;6.99;100.00
48976;BME280;34791;52.752;8.346;2023-03-04T12:54:32;149241.56;;;7.10;100.00
48976;BME280;34791;52.752;8.346;2023-03-04T12:57:12;149209.28;;;6.97;100.00
48976;BME280;34791;52.752;8.346;2023-03-04T13:02:55;149153.78;;;6.75;100.00
48976;BME280;34791;52.752;8.346;2023-03-04T13:10:23;149175.72;;;6.84;100.00
48976;BME280;34791;52.752;8.346;2023-03-04T13:12:54;149125.38;;;6.64;100.00
48976;BME280;34791;52.752;8.346;2023-03-04T13:20:41;149184.75;;;6.87;100.00
48976;BME280;34791;52.752;8.346;2023-03-04T13:31:03;60484.78;;;-145.18;100.00
48976;BME280;34791;52.752;8.346;2023-03-04T13:48:45;60484.78;;;-145.18;100.00
48976;BME280;34791;52.752;8.346;2023-03-04T13:56:35;60484.78;;;-145.18;100.00
48976;BME280;34791;52.752;8.346;2023-03-04T14:04:20;60484.78;;;-145.18;100.00
48976;BME280;34791;52.752;8.346;2023-03-04T14:06:49;60484.78;;;-145.18;100.00
48976;BME280;34791;52.752;8.346;2023-03-04T14:09:24;60484.78;;;-145.18;100.00
48976;BME280;34791;52.752;8.346;2023-03-04T14:11:51;60484.78;;;-145.18;100.00
48976;BME280;34791;52.752;8.346;2023-03-04T14:14:20;60484.78;;;-145.18;100.00
48976;BME280;34791;52.752;8.346;2023-03-04T14:16:53;60484.78;;;-145.18;100.00
48976;BME280;34791;52.752;8.346;2023-03-04T14:19:43;60484.78;;;-145.18;100.00
48976;BME280;34791;52.752;8.346;2023-03-04T14:22:38;60484.78;;;-145.18;100.00
48976;BME280;34791;52.752;8.346;2023-03-04T14:27:38;60484.78;;;-145.18;100.00
48976;BME280;34791;52.752;8.346;2023-03-04T14:30:07;60484.78;;;-145.18;100.00
48976;BME280;34791;52.752;8.346;2023-03-04T14:32:32;60484.78;;;-145.18;100.00
48976;BME280;34791;52.752;8.346;2023-03-04T14:35:04;60484.78;;;-145.18;100.00
48976;BME280;34791;52.752;8.346;2023-03-04T14:37:40;60484.78;;;-145.18;100.00
48976;BME280;34791;52.752;8.346;2023-03-04T14:40:06;60484.78;;;-145.18;100.00
48976;BME280;34791;52.752;8.346;2023-03-04T14:42:39;60484.78;;;-145.18;100.00
48976;BME280;34791;52.752;8.346;2023-03-04T14:45:06;60484.78;;;-145.18;100.00
48976;BME280;34791;52.752;8.346;2023-03-04T14:47:39;60484.78;;;-145.18;100.00
48976;BME280;34791;52.752;8.346;2023-03-04T14:50:09;60484.78;;;-145.18;100.00
48976;BME280;34791;52.752;8.346;2023-03-04T14:52:40;60484.78;;;-145.18;100.00
48976;BME280;34791;52.752;8.346;2023-03-04T14:55:23;60484.78;;;-145.18;100.00
48976;BME280;34791;52.752;8.346;2023-03-04T14:58:08;60484.78;;;-145.18;100.00